createdAt,value
2018-03-19T00:02:00.279Z,4.27
2018-03-19T00:04:03.609Z,3.83
2018-03-19T00:06:06.932Z,3.70
2018-03-19T00:08:10.280Z,4.00
2018-03-19T00:10:13.619Z,4.03
2018-03-19T00:12:16.976Z,3.73
2018-03-19T00:14:20.295Z,3.90
2018-03-19T00:16:23.636Z,4.30
2018-03-19T00:18:26.959Z,3.83
2018-03-19T00:20:30.277Z,3.70
2018-03-19T00:22:33.631Z,4.27
2018-03-19T00:24:36.974Z,4.03
2018-03-19T00:26:40.299Z,3.37
2018-03-19T00:28:43.653Z,4.03
2018-03-19T00:30:46.984Z,3.83
2018-03-19T00:32:50.333Z,4.00
2018-03-19T00:34:53.676Z,4.00
2018-03-19T00:36:57.027Z,4.07
2018-03-19T00:39:00.352Z,4.13
2018-03-19T00:41:03.674Z,4.23
2018-03-19T00:43:06.850Z,3.63
2018-03-19T00:45:10.216Z,4.33
2018-03-19T00:47:13.731Z,4.07
2018-03-19T00:49:17.059Z,4.37
2018-03-19T00:51:20.436Z,3.93
2018-03-19T00:53:23.807Z,3.60
2018-03-19T00:55:27.136Z,4.13
2018-03-19T00:57:30.303Z,4.07
2018-03-19T00:59:33.636Z,3.80
2018-03-19T01:01:36.971Z,4.13
2018-03-19T01:03:40.346Z,4.17
2018-03-19T01:05:43.673Z,3.80
2018-03-19T01:07:47.052Z,3.90
2018-03-19T01:09:50.381Z,4.07
2018-03-19T01:11:53.707Z,4.33
2018-03-19T01:13:57.036Z,3.83
2018-03-19T01:16:00.357Z,3.40
2018-03-19T01:18:03.718Z,4.10
2018-03-19T01:20:07.055Z,4.00
2018-03-19T01:22:10.378Z,3.63
2018-03-19T01:24:13.710Z,4.07
2018-03-19T01:26:17.041Z,3.57
2018-03-19T01:28:20.403Z,3.90
2018-03-19T01:30:23.725Z,3.97
2018-03-19T01:32:27.070Z,3.57
2018-03-19T01:34:30.384Z,3.73
2018-03-19T01:36:33.725Z,3.63
2018-03-19T01:38:37.081Z,3.73
2018-03-19T01:40:40.407Z,4.10
2018-03-19T01:42:43.742Z,3.70
2018-03-19T01:44:47.062Z,4.20
2018-03-19T01:46:50.388Z,3.77
2018-03-19T01:48:53.740Z,3.97
2018-03-19T01:50:57.085Z,3.53
2018-03-19T01:53:00.407Z,4.30
2018-03-19T01:55:03.720Z,4.03
2018-03-19T01:57:07.036Z,3.57
2018-03-19T01:59:10.388Z,3.80
2018-03-19T02:01:13.705Z,3.67
2018-03-19T02:03:17.027Z,3.50
2018-03-19T02:05:20.346Z,4.17
2018-03-19T02:07:23.663Z,3.53
2018-03-19T02:09:27.026Z,3.70
2018-03-19T02:11:30.376Z,3.50
2018-03-19T02:13:33.713Z,3.77
2018-03-19T02:15:37.028Z,3.90
2018-03-19T02:17:40.359Z,3.60
2018-03-19T02:19:43.733Z,3.60
2018-03-19T02:21:46.867Z,3.90
2018-03-19T02:23:50.052Z,3.47
2018-03-19T02:25:53.384Z,4.00
2018-03-19T02:27:56.728Z,4.03
2018-03-19T02:30:00.085Z,4.20
2018-03-19T02:32:03.417Z,3.83
2018-03-19T02:34:06.769Z,3.77
2018-03-19T02:36:10.086Z,4.10
2018-03-19T02:38:13.407Z,3.33
2018-03-19T02:40:16.730Z,4.00
2018-03-19T02:42:20.083Z,3.27
2018-03-19T02:44:23.436Z,3.43
2018-03-19T02:46:26.764Z,3.33
2018-03-19T02:48:30.089Z,3.93
2018-03-19T02:50:33.410Z,3.80
2018-03-19T02:52:36.732Z,3.33
2018-03-19T02:54:40.084Z,3.67
2018-03-19T02:56:43.426Z,3.63
2018-03-19T02:58:46.753Z,4.03
2018-03-19T03:00:50.081Z,3.43
2018-03-19T03:02:53.435Z,3.63
2018-03-19T03:04:56.805Z,3.10
2018-03-19T03:07:00.150Z,3.37
2018-03-19T03:09:03.474Z,3.40
2018-03-19T03:11:06.864Z,3.70
2018-03-19T03:13:10.195Z,3.40
2018-03-19T03:15:13.547Z,3.30
2018-03-19T03:17:16.885Z,3.47
2018-03-19T03:19:20.269Z,3.20
2018-03-19T03:21:23.583Z,3.20
2018-03-19T03:23:26.894Z,3.50
2018-03-19T03:25:30.290Z,3.53
2018-03-19T03:27:33.623Z,3.53
2018-03-19T03:29:36.958Z,3.93
2018-03-19T03:31:40.295Z,3.53
2018-03-19T03:33:43.631Z,3.50
2018-03-19T03:35:47.000Z,3.63
2018-03-19T03:37:50.336Z,3.23
2018-03-19T03:39:53.660Z,3.23
2018-03-19T03:41:56.978Z,3.77
2018-03-19T03:44:00.066Z,3.97
2018-03-19T03:46:03.411Z,3.83
2018-03-19T03:48:06.738Z,3.50
2018-03-19T03:50:10.069Z,3.17
2018-03-19T03:52:13.406Z,3.67
2018-03-19T03:54:16.758Z,3.60
2018-03-19T03:56:20.128Z,3.67
2018-03-19T03:58:23.551Z,3.63
2018-03-19T04:00:27.047Z,3.57
2018-03-19T04:02:30.375Z,3.30
2018-03-19T04:04:33.692Z,3.23
2018-03-19T04:06:37.014Z,3.30
2018-03-19T04:08:40.340Z,3.10
2018-03-19T04:10:43.667Z,3.13
2018-03-19T04:12:47.000Z,3.40
2018-03-19T04:14:50.327Z,3.57
2018-03-19T04:16:53.647Z,3.30
2018-03-19T04:18:56.972Z,2.97
2018-03-19T04:21:00.389Z,4.00
2018-03-19T04:23:03.719Z,3.60
2018-03-19T04:25:07.181Z,3.87
2018-03-19T04:27:10.511Z,3.10
2018-03-19T04:29:13.836Z,3.67
2018-03-19T04:31:17.161Z,3.67
2018-03-19T04:33:20.503Z,4.23
2018-03-19T04:35:23.887Z,3.47
2018-03-19T04:37:27.209Z,3.80
2018-03-19T04:39:30.540Z,3.57
2018-03-19T04:41:34.268Z,3.33
2018-03-19T04:43:37.643Z,3.13
2018-03-19T04:45:41.871Z,3.30
2018-03-19T04:47:45.196Z,3.20
2018-03-19T04:49:48.515Z,4.00
2018-03-19T04:51:51.883Z,3.70
2018-03-19T04:53:55.206Z,3.80
2018-03-19T04:55:58.524Z,3.87
2018-03-19T04:58:01.848Z,3.80
2018-03-19T05:00:05.176Z,3.70
2018-03-19T05:02:08.570Z,3.50
2018-03-19T05:04:11.887Z,3.40
2018-03-19T05:06:15.202Z,3.40
2018-03-19T05:08:18.536Z,3.50
2018-03-19T05:10:21.926Z,4.00
2018-03-19T05:12:25.560Z,3.47
2018-03-19T05:14:29.148Z,3.50
2018-03-19T05:16:32.507Z,3.50
2018-03-19T05:18:36.045Z,3.20
2018-03-19T05:20:39.527Z,3.40
2018-03-19T05:22:42.893Z,3.30
2018-03-19T05:24:46.223Z,3.00
2018-03-19T05:26:49.539Z,3.87
2018-03-19T05:28:52.958Z,3.40
2018-03-19T05:30:56.373Z,3.53
2018-03-19T05:32:59.734Z,4.03
2018-03-19T05:35:03.176Z,3.87
2018-03-19T05:37:06.503Z,3.60
2018-03-19T05:39:09.828Z,3.33
2018-03-19T05:41:13.148Z,3.17
2018-03-19T05:43:16.512Z,3.73
2018-03-19T05:45:19.836Z,3.03
2018-03-19T05:47:23.179Z,4.00
2018-03-19T05:49:26.625Z,3.30
2018-03-19T05:51:30.112Z,3.37
2018-03-19T05:53:33.452Z,3.70
2018-03-19T05:55:36.777Z,3.70
2018-03-19T05:57:39.888Z,3.73
2018-03-19T05:59:43.219Z,3.37
2018-03-19T06:01:46.550Z,3.80
2018-03-19T06:03:50.023Z,3.50
2018-03-19T06:05:53.359Z,3.63
2018-03-19T06:07:56.825Z,3.97
2018-03-19T06:10:00.189Z,3.73
2018-03-19T06:12:03.517Z,3.23
2018-03-19T06:14:06.875Z,3.57
2018-03-19T06:16:10.397Z,3.03
2018-03-19T06:18:14.058Z,3.70
2018-03-19T06:20:17.436Z,4.10
2018-03-19T06:22:20.754Z,3.63
2018-03-19T06:24:24.191Z,3.67
2018-03-19T06:26:27.582Z,3.60
2018-03-19T06:28:30.897Z,3.63
2018-03-19T06:30:34.221Z,3.07
2018-03-19T06:32:37.548Z,3.70
2018-03-19T06:34:40.890Z,3.63
2018-03-19T06:36:44.216Z,3.80
2018-03-19T06:38:47.355Z,3.47
2018-03-19T06:40:50.688Z,4.07
2018-03-19T06:42:54.015Z,4.07
2018-03-19T06:44:57.352Z,3.50
2018-03-19T06:47:00.698Z,4.17
2018-03-19T06:49:04.056Z,3.70
2018-03-19T06:51:07.399Z,3.50
2018-03-19T06:53:10.725Z,3.73
2018-03-19T06:55:14.039Z,4.10
2018-03-19T06:57:17.368Z,3.70
2018-03-19T06:59:20.699Z,4.23
2018-03-19T07:01:24.021Z,3.60
2018-03-19T07:03:27.344Z,3.47
2018-03-19T07:05:30.673Z,3.90
2018-03-19T07:07:33.995Z,3.90
2018-03-19T07:09:37.325Z,3.63
2018-03-19T07:11:40.655Z,3.83
2018-03-19T07:13:43.984Z,3.60
2018-03-19T07:15:47.306Z,4.20
2018-03-19T07:17:50.708Z,3.77
2018-03-19T07:19:54.029Z,4.53
2018-03-19T07:21:57.364Z,4.37
2018-03-19T07:24:00.700Z,3.67
2018-03-19T07:26:04.042Z,3.87
2018-03-19T07:28:07.371Z,4.00
2018-03-19T07:30:10.692Z,3.80
2018-03-19T07:32:14.033Z,3.90
2018-03-19T07:34:17.352Z,3.97
2018-03-19T07:36:20.672Z,3.67
2018-03-19T07:38:24.062Z,3.93
2018-03-19T07:40:27.392Z,3.93
2018-03-19T07:42:30.717Z,4.10
2018-03-19T07:44:34.047Z,4.27
2018-03-19T07:46:37.396Z,3.80
2018-03-19T07:48:40.760Z,3.93
2018-03-19T07:50:44.103Z,3.97
2018-03-19T07:52:47.429Z,3.93
2018-03-19T07:54:50.753Z,3.83
2018-03-19T07:56:54.102Z,4.33
2018-03-19T07:58:57.432Z,4.00
2018-03-19T08:01:00.947Z,4.57
2018-03-19T08:03:04.267Z,4.00
2018-03-19T08:05:07.591Z,4.33
2018-03-19T08:07:10.905Z,3.83
2018-03-19T08:09:14.239Z,4.13
2018-03-19T08:11:17.687Z,4.20
2018-03-19T08:13:21.014Z,3.83
2018-03-19T08:15:24.349Z,4.07
2018-03-19T08:17:27.697Z,3.57
2018-03-19T08:19:31.016Z,4.10
2018-03-19T08:21:34.336Z,4.10
2018-03-19T08:23:37.657Z,3.70
2018-03-19T08:25:40.974Z,4.40
2018-03-19T08:27:44.294Z,4.40
2018-03-19T08:29:47.647Z,4.20
2018-03-19T08:31:50.971Z,4.47
2018-03-19T08:33:54.296Z,4.13
2018-03-19T08:35:57.635Z,4.67
2018-03-19T08:38:00.963Z,4.20
2018-03-19T08:40:04.051Z,3.70
2018-03-19T08:42:07.384Z,4.50
2018-03-19T08:44:10.716Z,4.50
2018-03-19T08:46:14.035Z,4.27
2018-03-19T08:48:17.357Z,4.20
2018-03-19T08:50:20.674Z,4.60
2018-03-19T08:52:24.010Z,4.53
2018-03-19T08:54:27.359Z,5.03
2018-03-19T08:56:30.704Z,4.00
2018-03-19T08:58:34.059Z,4.93
2018-03-19T09:00:37.548Z,5.27
2018-03-19T09:02:40.620Z,4.77
2018-03-19T09:04:43.949Z,4.67
2018-03-19T09:06:47.094Z,4.80
2018-03-19T09:08:50.415Z,4.27
2018-03-19T09:10:53.740Z,4.60
2018-03-19T09:12:57.073Z,4.67
2018-03-19T09:15:00.427Z,5.00
2018-03-19T09:17:03.760Z,4.57
2018-03-19T09:19:07.109Z,5.00
2018-03-19T09:21:10.304Z,4.40
2018-03-19T09:23:13.626Z,4.67
2018-03-19T09:25:17.063Z,4.70
2018-03-19T09:27:20.392Z,4.63
2018-03-19T09:29:23.711Z,4.60
2018-03-19T09:31:27.034Z,4.40
2018-03-19T09:33:30.362Z,4.30
2018-03-19T09:35:33.677Z,4.47
2018-03-19T09:37:37.012Z,4.47
2018-03-19T09:39:40.356Z,4.50
2018-03-19T09:41:43.718Z,4.37
2018-03-19T09:43:47.173Z,4.47
2018-03-19T09:45:50.505Z,4.57
2018-03-19T09:47:53.878Z,4.60
2018-03-19T09:49:57.216Z,4.77
2018-03-19T09:52:00.668Z,5.00
2018-03-19T09:54:04.003Z,5.07
2018-03-19T09:56:07.332Z,4.70
2018-03-19T09:58:10.686Z,4.60
2018-03-19T10:00:14.001Z,4.83
2018-03-19T10:02:17.356Z,4.67
2018-03-19T10:04:20.673Z,4.40
2018-03-19T10:06:23.990Z,4.93
2018-03-19T10:08:27.345Z,4.87
2018-03-19T10:10:30.673Z,4.60
2018-03-19T10:12:34.011Z,4.77
2018-03-19T10:14:37.337Z,4.60
2018-03-19T10:16:40.654Z,4.53
2018-03-19T10:18:44.016Z,4.60
2018-03-19T10:20:47.345Z,4.87
2018-03-19T10:22:50.704Z,4.10
2018-03-19T10:24:54.020Z,4.83
2018-03-19T10:26:57.354Z,4.77
2018-03-19T10:29:00.700Z,4.47
2018-03-19T10:31:04.008Z,4.60
2018-03-19T10:33:07.355Z,4.60
2018-03-19T10:35:10.691Z,4.63
2018-03-19T10:37:14.025Z,4.20
2018-03-19T10:39:17.404Z,4.60
2018-03-19T10:41:20.731Z,4.53
2018-03-19T10:43:24.089Z,4.93
2018-03-19T10:45:27.407Z,4.90
2018-03-19T10:47:30.733Z,4.60
2018-03-19T10:49:34.090Z,4.40
2018-03-19T10:51:37.413Z,4.50
2018-03-19T10:53:40.768Z,4.63
2018-03-19T10:55:44.086Z,4.33
2018-03-19T10:57:47.431Z,4.77
2018-03-19T10:59:51.029Z,4.83
2018-03-19T11:02:00.056Z,4.77
2018-03-19T11:04:08.764Z,4.23
2018-03-19T11:08:50.888Z,4.63
2018-03-19T11:10:54.211Z,4.63
2018-03-19T11:12:57.531Z,4.80
2018-03-19T11:15:00.863Z,5.23
2018-03-19T11:17:04.200Z,4.50
2018-03-19T11:19:07.699Z,4.20
2018-03-19T11:21:11.024Z,4.53
2018-03-19T11:23:14.348Z,4.40
2018-03-19T11:25:17.677Z,4.97
2018-03-19T11:27:20.999Z,4.47
2018-03-19T11:29:24.318Z,4.77
2018-03-19T11:31:27.645Z,4.43
2018-03-19T11:33:30.971Z,5.07
2018-03-19T11:35:34.297Z,4.23
2018-03-19T11:37:37.615Z,4.50
2018-03-19T11:39:40.944Z,4.73
2018-03-19T11:41:44.284Z,5.00
2018-03-19T11:43:47.612Z,4.53
2018-03-19T11:45:50.943Z,4.80
2018-03-19T11:47:54.257Z,4.50
2018-03-19T11:49:57.425Z,5.10
2018-03-19T11:52:00.744Z,4.37
2018-03-19T11:54:04.071Z,4.77
2018-03-19T11:56:07.399Z,4.57
2018-03-19T11:58:10.730Z,4.67
2018-03-19T12:00:14.091Z,5.07
2018-03-19T12:02:17.416Z,4.33
2018-03-19T12:04:20.723Z,4.90
2018-03-19T12:06:24.037Z,5.13
2018-03-19T12:08:27.363Z,4.53
2018-03-19T12:10:30.679Z,4.93
2018-03-19T12:12:34.050Z,5.03
2018-03-19T12:14:37.376Z,4.77
2018-03-19T12:16:40.702Z,5.17
2018-03-19T12:18:44.033Z,5.37
2018-03-19T12:20:47.365Z,4.67
2018-03-19T12:22:50.696Z,5.00
2018-03-19T12:24:54.030Z,4.93
2018-03-19T12:26:57.357Z,4.87
2018-03-19T12:29:00.691Z,5.10
2018-03-19T12:31:04.009Z,5.20
2018-03-19T12:33:07.092Z,4.80
2018-03-19T12:35:10.425Z,3.97
2018-03-19T12:37:13.772Z,5.40
2018-03-19T12:39:17.098Z,5.20
2018-03-19T12:41:20.439Z,4.77
2018-03-19T12:43:23.758Z,5.10
2018-03-19T12:45:27.108Z,5.23
2018-03-19T12:47:30.458Z,4.80
2018-03-19T12:49:33.784Z,4.67
2018-03-19T12:51:37.123Z,5.10
2018-03-19T12:53:40.480Z,4.43
2018-03-19T12:55:43.809Z,5.70
2018-03-19T12:57:47.162Z,4.80
2018-03-19T12:59:50.482Z,4.37
2018-03-19T13:01:53.800Z,5.00
2018-03-19T13:03:57.171Z,4.73
2018-03-19T13:06:00.495Z,4.53
2018-03-19T13:08:03.852Z,4.60
2018-03-19T13:10:07.178Z,4.67
2018-03-19T13:12:10.499Z,5.10
2018-03-19T13:14:13.847Z,4.30
2018-03-19T13:16:17.166Z,4.63
2018-03-19T13:18:20.516Z,4.33
2018-03-19T13:20:23.827Z,4.90
2018-03-19T13:22:27.147Z,5.00
2018-03-19T13:24:30.492Z,4.73
2018-03-19T13:26:33.815Z,4.53
2018-03-19T13:28:37.172Z,4.40
2018-03-19T13:30:40.493Z,4.83
2018-03-19T13:32:43.817Z,4.90
2018-03-19T13:34:47.134Z,5.20
2018-03-19T13:36:50.479Z,4.23
2018-03-19T13:38:53.835Z,4.10
2018-03-19T13:40:57.147Z,4.47
2018-03-19T13:43:00.468Z,4.73
2018-03-19T13:45:03.833Z,4.77
2018-03-19T13:47:07.163Z,4.57
2018-03-19T13:49:10.510Z,4.40
2018-03-19T13:51:13.843Z,4.57
2018-03-19T13:53:17.164Z,4.67
2018-03-19T13:55:20.533Z,4.87
2018-03-19T13:57:23.851Z,4.60
2018-03-19T13:59:27.204Z,4.90
2018-03-19T14:01:30.528Z,4.80
2018-03-19T14:03:33.999Z,4.83
2018-03-19T14:05:37.427Z,4.53
2018-03-19T14:07:40.880Z,4.53
2018-03-19T14:09:44.231Z,4.70
2018-03-19T14:11:47.553Z,4.50
2018-03-19T14:13:50.878Z,5.17
2018-03-19T14:15:54.200Z,4.63
2018-03-19T14:17:57.528Z,4.90
2018-03-19T14:20:00.886Z,5.20
2018-03-19T14:22:03.965Z,4.53
2018-03-19T14:24:07.280Z,4.80
2018-03-19T14:26:10.598Z,4.83
2018-03-19T14:28:13.958Z,4.60
2018-03-19T14:30:17.465Z,5.30
2018-03-19T14:32:20.796Z,4.50
2018-03-19T14:34:24.126Z,5.23
2018-03-19T14:36:27.489Z,4.77
2018-03-19T14:38:30.811Z,5.03
2018-03-19T14:40:34.169Z,4.53
2018-03-19T14:42:37.695Z,4.67
2018-03-19T14:44:41.020Z,5.20
2018-03-19T14:46:44.344Z,5.03
2018-03-19T14:48:47.664Z,4.80
2018-03-19T14:50:51.057Z,4.63
2018-03-19T14:52:54.573Z,4.83
2018-03-19T14:54:58.064Z,4.70
2018-03-19T14:57:01.459Z,4.97
2018-03-19T14:59:04.936Z,5.07
2018-03-19T15:01:08.287Z,4.80
2018-03-19T15:03:11.597Z,5.20
2018-03-19T15:05:14.928Z,4.67
2018-03-19T15:07:18.300Z,4.60
2018-03-19T15:09:21.624Z,4.80
2018-03-19T15:11:24.972Z,4.93
2018-03-19T15:13:28.324Z,5.43
2018-03-19T15:15:32.511Z,5.47
2018-03-19T15:17:35.876Z,4.50
2018-03-19T15:19:39.218Z,5.17
2018-03-19T15:21:42.866Z,5.00
2018-03-19T15:23:46.779Z,4.80
2018-03-19T15:25:51.417Z,5.07
2018-03-19T15:27:55.464Z,5.40
2018-03-19T15:29:58.902Z,5.33
2018-03-19T15:32:02.764Z,4.97
2018-03-19T15:34:06.899Z,4.53
2018-03-19T15:36:10.361Z,5.10
2018-03-19T15:38:14.125Z,4.90
2018-03-19T15:40:18.034Z,4.77
2018-03-19T15:42:21.570Z,4.90
2018-03-19T15:44:25.087Z,5.37
2018-03-19T15:46:28.465Z,5.13
2018-03-19T15:48:32.397Z,4.63
2018-03-19T15:50:35.748Z,4.67
2018-03-19T15:52:39.153Z,4.23
2018-03-19T15:54:42.497Z,5.13
2018-03-19T15:56:45.917Z,5.00
2018-03-19T15:58:49.264Z,4.90
2018-03-19T16:00:52.646Z,5.03
2018-03-19T16:02:56.008Z,4.73
2018-03-19T16:04:59.379Z,4.47
2018-03-19T16:07:03.326Z,5.13
2018-03-19T16:09:07.651Z,4.80
2018-03-19T16:11:11.242Z,4.77
2018-03-19T16:13:14.663Z,5.30
2018-03-19T16:15:18.055Z,4.47
2018-03-19T16:17:21.512Z,4.87
2018-03-19T16:19:24.989Z,4.87
2018-03-19T16:21:29.277Z,5.13
2018-03-19T16:23:33.045Z,5.00
2018-03-19T16:25:36.437Z,4.57
2018-03-19T16:27:40.282Z,4.53
2018-03-19T16:29:44.802Z,4.73
2018-03-19T16:31:48.206Z,5.13
2018-03-19T16:33:51.770Z,4.87
2018-03-19T16:35:55.122Z,4.63
2018-03-19T16:37:59.203Z,4.67
2018-03-19T16:40:03.041Z,4.03
2018-03-19T16:42:06.737Z,5.13
2018-03-19T16:44:10.320Z,4.43
2018-03-19T16:46:13.679Z,4.93
2018-03-19T16:48:17.682Z,4.57
2018-03-19T16:50:21.226Z,4.27
2018-03-19T16:52:25.429Z,4.10
2018-03-19T16:54:29.104Z,4.73
2018-03-19T16:56:32.458Z,4.33
2018-03-19T16:58:35.867Z,4.90
2018-03-19T17:00:39.269Z,4.40
2018-03-19T17:02:42.800Z,4.57
2018-03-19T17:04:46.207Z,4.23
2018-03-19T17:06:49.640Z,4.33
2018-03-19T17:08:54.343Z,4.17
2018-03-19T17:10:57.708Z,4.27
2018-03-19T17:13:02.024Z,4.57
2018-03-19T17:15:05.402Z,5.13
2018-03-19T17:17:08.724Z,4.23
2018-03-19T17:19:12.088Z,4.60
2018-03-19T17:21:15.431Z,4.40
2018-03-19T17:23:18.761Z,4.67
2018-03-19T17:25:22.116Z,4.67
2018-03-19T17:27:25.443Z,4.70
2018-03-19T17:29:28.762Z,4.30
2018-03-19T17:31:32.102Z,4.10
2018-03-19T17:33:35.442Z,4.47
2018-03-19T17:35:38.814Z,4.67
2018-03-19T17:37:42.151Z,4.30
2018-03-19T17:39:45.480Z,4.60
2018-03-19T17:41:48.806Z,4.33
2018-03-19T17:43:52.133Z,4.70
2018-03-19T17:45:55.505Z,4.83
2018-03-19T17:47:58.879Z,4.50
2018-03-19T17:50:02.345Z,4.40
2018-03-19T17:52:05.717Z,4.33
2018-03-19T17:54:09.102Z,4.97
2018-03-19T17:56:12.582Z,4.17
2018-03-19T17:58:15.904Z,4.90
2018-03-19T18:00:19.260Z,4.00
2018-03-19T18:02:22.610Z,4.70
2018-03-19T18:04:25.923Z,4.60
2018-03-19T18:06:29.243Z,4.30
2018-03-19T18:08:32.572Z,4.10
2018-03-19T18:10:35.930Z,4.47
2018-03-19T18:12:39.285Z,3.90
2018-03-19T18:14:42.802Z,4.20
2018-03-19T18:16:46.130Z,4.33
2018-03-19T18:18:49.472Z,4.50
2018-03-19T18:20:52.793Z,4.33
2018-03-19T18:22:56.146Z,4.20
2018-03-19T18:24:59.473Z,4.57
2018-03-19T18:27:02.796Z,4.70
2018-03-19T18:29:05.632Z,4.20
2018-03-19T18:31:08.966Z,4.87
2018-03-19T18:33:12.314Z,4.20
2018-03-19T18:35:15.658Z,4.60
2018-03-19T18:37:18.984Z,3.93
2018-03-19T18:39:22.312Z,4.23
2018-03-19T18:41:26.361Z,4.00
2018-03-19T18:43:29.720Z,4.60
2018-03-19T18:45:33.147Z,4.30
2018-03-19T18:47:36.496Z,4.43
2018-03-19T18:49:39.641Z,4.47
2018-03-19T18:51:42.960Z,3.97
2018-03-19T18:53:46.572Z,4.37
2018-03-19T18:55:49.987Z,4.13
2018-03-19T18:57:53.368Z,4.57
2018-03-19T18:59:56.717Z,4.53
2018-03-19T19:02:00.031Z,4.73
2018-03-19T19:04:03.409Z,4.37
2018-03-19T19:06:07.019Z,4.27
2018-03-19T19:08:10.734Z,3.80
2018-03-19T19:10:14.059Z,4.23
2018-03-19T19:12:17.776Z,4.50
2018-03-19T19:14:21.192Z,3.93
2018-03-19T19:16:24.663Z,3.87
2018-03-19T19:18:27.981Z,3.70
2018-03-19T19:20:31.492Z,4.13
2018-03-19T19:22:34.829Z,4.20
2018-03-19T19:24:38.220Z,3.97
2018-03-19T19:26:41.547Z,4.40
2018-03-19T19:28:44.898Z,4.23
2018-03-19T19:30:48.269Z,4.37
2018-03-19T19:32:51.630Z,3.97
2018-03-19T19:34:55.009Z,3.67
2018-03-19T19:36:58.326Z,4.00
2018-03-19T19:39:01.642Z,4.37
2018-03-19T19:41:04.967Z,3.90
2018-03-19T19:43:08.290Z,4.03
2018-03-19T19:45:11.656Z,4.07
2018-03-19T19:47:14.971Z,4.50
2018-03-19T19:49:18.295Z,3.87
2018-03-19T19:51:21.636Z,4.37
2018-03-19T19:53:24.953Z,4.17
2018-03-19T19:55:28.741Z,3.60
2018-03-19T19:57:32.056Z,3.63
2018-03-19T19:59:35.379Z,3.80
2018-03-19T20:01:38.768Z,4.50
2018-03-19T20:03:42.215Z,4.20
2018-03-19T20:05:45.679Z,4.17
2018-03-19T20:07:49.007Z,3.83
2018-03-19T20:09:52.337Z,4.67
2018-03-19T20:11:55.673Z,4.10
2018-03-19T20:13:59.234Z,4.33
2018-03-19T20:16:02.846Z,3.57
2018-03-19T20:18:06.940Z,4.03
2018-03-19T20:20:10.267Z,4.20
2018-03-19T20:22:13.585Z,4.47
2018-03-19T20:24:16.911Z,4.20
2018-03-19T20:26:20.248Z,3.77
2018-03-19T20:28:23.581Z,4.07
2018-03-19T20:30:26.920Z,4.40
2018-03-19T20:32:30.256Z,4.03
2018-03-19T20:34:33.589Z,3.77
2018-03-19T20:36:36.912Z,4.33
2018-03-19T20:38:40.231Z,4.07
2018-03-19T20:40:43.556Z,4.00
2018-03-19T20:42:46.896Z,4.00
2018-03-19T20:44:50.392Z,4.10
2018-03-19T20:46:53.717Z,3.87
2018-03-19T20:48:57.051Z,3.87
2018-03-19T20:51:00.385Z,4.00
2018-03-19T20:53:03.720Z,4.30
2018-03-19T20:55:07.052Z,4.10
2018-03-19T20:57:10.377Z,4.10
2018-03-19T20:59:13.756Z,4.00
2018-03-19T21:01:17.080Z,3.87
2018-03-19T21:03:20.459Z,3.73
2018-03-19T21:05:23.795Z,3.83
2018-03-19T21:07:27.116Z,3.70
2018-03-19T21:09:30.437Z,4.30
2018-03-19T21:11:33.763Z,3.93
2018-03-19T21:13:37.131Z,3.87
2018-03-19T21:15:40.455Z,4.20
2018-03-19T21:17:43.793Z,4.20
2018-03-19T21:19:47.107Z,3.73
2018-03-19T21:21:50.448Z,3.97
2018-03-19T21:23:53.836Z,3.40
2018-03-19T21:25:57.159Z,4.00
2018-03-19T21:28:00.294Z,3.77
2018-03-19T21:30:03.432Z,4.00
2018-03-19T21:32:06.751Z,3.70
2018-03-19T21:34:10.112Z,3.40
2018-03-19T21:36:13.426Z,4.03
2018-03-19T21:38:16.769Z,3.83
2018-03-19T21:40:20.098Z,4.00
2018-03-19T21:42:23.449Z,4.40
2018-03-19T21:44:26.822Z,3.93
2018-03-19T21:46:30.139Z,4.10
2018-03-19T21:48:33.460Z,4.00
2018-03-19T21:50:36.780Z,3.73
2018-03-19T21:52:40.098Z,4.03
2018-03-19T21:54:43.452Z,4.10
2018-03-19T21:56:46.772Z,3.90
2018-03-19T21:58:50.100Z,4.43
2018-03-19T22:00:53.475Z,4.27
2018-03-19T22:02:56.801Z,3.73
2018-03-19T22:05:00.157Z,4.17
2018-03-19T22:07:03.492Z,4.40
2018-03-19T22:09:06.809Z,3.97
2018-03-19T22:11:11.317Z,4.60
2018-03-19T22:13:14.641Z,3.93
2018-03-19T22:15:17.968Z,4.17
2018-03-19T22:17:21.314Z,3.37
2018-03-19T22:19:24.643Z,4.43
2018-03-19T22:21:28.000Z,3.73
2018-03-19T22:23:31.134Z,4.20
2018-03-19T22:25:34.456Z,4.13
2018-03-19T22:27:37.789Z,4.13
2018-03-19T22:29:41.123Z,4.07
2018-03-19T22:31:44.457Z,3.70
2018-03-19T22:33:47.855Z,4.27
2018-03-19T22:35:51.174Z,3.80
2018-03-19T22:37:54.498Z,3.87
2018-03-19T22:39:57.829Z,3.83
2018-03-19T22:42:01.152Z,3.67
2018-03-19T22:44:04.471Z,4.17
2018-03-19T22:46:07.798Z,4.50
2018-03-19T22:48:11.139Z,4.50
2018-03-19T22:50:14.474Z,3.70
2018-03-19T22:52:17.820Z,4.70
2018-03-19T22:54:21.164Z,3.93
2018-03-19T22:56:24.523Z,4.30
2018-03-19T22:58:27.840Z,4.27
2018-03-19T23:00:31.160Z,3.70
2018-03-19T23:02:34.477Z,4.07
2018-03-19T23:04:48.987Z,4.30
2018-03-19T23:06:52.317Z,4.07
2018-03-19T23:08:55.629Z,4.13
2018-03-19T23:10:58.945Z,4.00
2018-03-19T23:13:02.274Z,4.20
2018-03-19T23:15:05.605Z,3.63
2018-03-19T23:17:08.927Z,3.50
2018-03-19T23:19:12.272Z,4.00
2018-03-19T23:21:15.655Z,4.37
2018-03-19T23:23:18.969Z,3.90
2018-03-19T23:25:22.329Z,4.00
2018-03-19T23:27:25.688Z,3.93
2018-03-19T23:29:29.013Z,3.90
2018-03-19T23:31:32.204Z,4.33
2018-03-19T23:33:35.519Z,4.27
2018-03-19T23:35:38.840Z,4.20
2018-03-19T23:37:42.197Z,3.87
2018-03-19T23:39:45.519Z,4.20
2018-03-19T23:41:48.876Z,4.20
2018-03-19T23:43:52.204Z,4.30
2018-03-19T23:45:55.530Z,4.40
2018-03-19T23:47:58.888Z,4.50
2018-03-19T23:50:02.212Z,4.03
2018-03-19T23:52:05.563Z,4.20
2018-03-19T23:54:08.891Z,3.77
2018-03-19T23:56:12.218Z,4.50
2018-03-19T23:58:15.581Z,4.37
